Terminal Aerodrome Forecast
Issued by NWS

Home | Current Version | Previous Version | Graphics & Text | Print | Product List | Glossary On
Versions: 1 2 3 4 5 6 7 8 9 10 11 12 13 14 15 16
035
FTUS43 KMPX 230520
TAFRWF
TAF
KRWF 230520Z 2306/2406 19014G21KT P6SM SKC
     FM230900 18014KT P6SM SKC WS020/21050KT
     FM231430 19015G23KT P6SM SKC
     FM231900 18020G29KT P6SM SCT250
     FM240100 18012KT P6SM SCT120 BKN250 PROB30 2403/2406 4SM -TSRA
      BKN035CB=

USA.gov is the U.S. government's official web portal to all federal, state and local government web resources and services.